• Join FlightAware (Why Join?)
  • Login
  • US Flag 
03:54PM EDT


 

Airport Tracker/Info


-or-


 

Live Flight TrackerFlight Track Log ✈ SWA378 ✈ 20-May-2013 ✈ KBWI - KALB

Flight Track Log - Related Links

Times and Time Zones

All times are in EDT time to prevent confusion due to time zone crossing. See the SWA378 flight status page for this flight to view local times or setup timezone preferences in your user account.

Time Position Orientation Groundspeed Altitude Reporting Facility
EDT Latitude Longitude Course Direction KTS MPH feet Rate Location/Type
10:42PM 39.1667 -76.7500 99° East 206 237 3,200  Level Potomac TRACON
10:45PM 39.1411 -76.5389 99° East 256 295 9,600 2,520 Climbing Washington Center
10:46PM 39.1461 -76.4239 87° East 293 337 12,300 2,940 Climbing Washington Center
10:47PM 39.1469 -76.2981 89° East 329 379 15,600 3,120 Climbing Washington Center
10:48PM 39.1600 -76.1617 83° East 358 412 18,500 2,760 Climbing Washington Center
10:49PM 39.1772 -76.0253 81° East 378 435 21,100 2,520 Climbing Washington Center
10:50PM 39.1964 -75.8836 80° East 389 448 23,600 2,460 Climbing Washington Center
10:51PM 39.2781 -75.7739 46° Northeast 397 457 26,000 2,460 Climbing Washington Center
10:52PM 39.3594 -75.6667 46° Northeast 402 463 28,600 1,440 Climbing Washington Center
10:53PM 39.4447 -75.5539 46° Northeast 415 478 29,000 180 Climbing Washington Center
10:54PM 39.5383 -75.4356 44° Northeast 440 506 29,000  Level Washington Center
10:55PM 39.6153 -75.2953 55° Northeast 456 525 29,000  Level Washington Center
10:56PM 39.7289 -75.0653 57° Northeast 477 549 29,000  Level New York Center
10:57PM 39.8269 -74.9469 43° Northeast 477 549 29,000  Level New York Center
10:58PM 39.9225 -74.8364 42° Northeast 471 542 29,000  Level New York Center
10:59PM 40.0233 -74.7528 32° Northeast 471 542 29,000  Level New York Center
11:00PM 40.1519 -74.7114 14° North 463 533 29,000  Level New York Center
11:01PM 40.2722 -74.6664 16° North 456 525 29,000  Level New York Center
11:02PM 40.3967 -74.6217 15° North 451 519 29,000  Level New York Center
11:03PM 40.5253 -74.5797 14° North 458 527 29,000  Level New York Center
11:04PM 40.6494 -74.5375 14° North 463 533 29,000  Level New York Center
11:05PM 40.7758 -74.4950 14° North 463 533 29,000 -660 Level New York Center
11:08PM 41.0664 -74.3947 15° North 455 524 27,000 -960 Descending Boston Center
11:09PM 41.1817 -74.3597 13° North 455 524 26,000 -540 Descending Boston Center
11:10PM 41.3075 -74.3108 16° North 444 511 26,000  Level Boston Center
11:11PM 41.4269 -74.2672 15° North 432 497 26,000 -180 Level Boston Center
11:12PM 41.5378 -74.2344 12° North 442 509 25,700 -1,020 Descending Boston Center
11:13PM 41.6469 -74.1958 15° North 428 493 24,000 -2,100 Descending Boston Center
11:14PM 41.7558 -74.1572 15° North 412 474 21,500 -2,700 Descending Boston Center
11:15PM 41.8586 -74.1208 15° North 386 444 18,600 -2,760 Descending Boston Center
11:15PM 41.9550 -74.0900 13° North 395 455 16,500 -2,640 Descending Boston Center
11:16PM 42.0575 -74.0508 16° North 375 432 13,800 -2,760 Descending Boston Center
11:17PM 42.1606 -73.9972 21° North 369 425 11,000 -1,800 Descending Boston Center
11:19PM 42.2486 -73.9547 20° North 305 351 10,000 -1,440 Descending Boston Center
11:20PM 42.3283 -73.9117 22° Northeast 293 337 8,000 -1,740 Descending Boston Center
11:20PM 42.3975 -73.8794 19° North 286 329 6,700 -1,680 Descending Boston Center
11:22PM 42.4711 -73.8389 22° Northeast 263 303 4,700 -1,740 Descending Boston Center
11:23PM 42.5256 -73.8119 20° North 241 277 3,200 -1,440 Descending Boston Center
11:24PM 42.5922 -73.8022 North 224 258 2,000 -600 Descending Boston Center
11:25PM 42.6486 -73.8006 North 189 217 2,000 -480 Level Boston Center
11:26PM 42.6964 -73.8044 357° North 168 193 1,100 -900 Descending Boston Center